Time;durP1;ratioP1;P1;durP2;ratioP2;P2;SDS_P1;SDS_P2;PMS_P1;PMS_P2;Temp;Humidity;BMP_temperature;BMP_pressure;BME280_temperature;BME280_humidity;BME280_pressure;Samples;Min_cycle;Max_cycle;Signal;HPM_P1;HPM_P2
2022/08/25 00:02:02;;;;;;;6.78;5.53;;;18.90;99.90;18.90;101009.00;;;;4889503;28;93737;-62
2022/08/25 00:04:28;;;;;;;4.47;4.03;;;18.80;99.90;18.90;101009.00;;;;4891781;28;113749;-63
2022/08/25 00:06:54;;;;;;;6.18;4.20;;;18.80;99.90;18.90;101008.00;;;;4892532;28;94881;-62
2022/08/25 00:09:24;;;;;;;7.68;4.68;;;18.80;99.90;18.90;101009.00;;;;4892050;28;92849;-63
2022/08/25 00:11:51;;;;;;;5.40;4.65;;;18.80;99.90;18.90;101011.00;;;;4892377;28;92772;-64
2022/08/25 00:14:22;;;;;;;5.13;4.55;;;18.80;99.90;18.90;101011.00;;;;4892386;28;93186;-63
2022/08/25 00:16:48;;;;;;;9.02;5.00;;;18.80;99.90;18.90;101004.00;;;;4890196;28;93451;-62
2022/08/25 00:19:24;;;;;;;6.50;5.50;;;18.70;99.90;18.90;101007.00;;;;4893487;28;92461;-63
2022/08/25 00:21:50;;;;;;;9.13;4.72;;;18.80;99.90;18.80;101002.00;;;;4888746;28;93249;-62
2022/08/25 00:24:19;;;;;;;6.95;5.70;;;18.70;99.90;18.80;101001.00;;;;4890658;28;92907;-63
2022/08/25 00:26:49;;;;;;;7.75;5.63;;;18.70;99.90;18.80;101000.00;;;;4889553;28;93808;-62
2022/08/25 00:29:16;;;;;;;5.63;5.13;;;18.60;99.90;18.70;100999.00;;;;4889538;28;92999;-63
2022/08/25 00:31:42;;;;;;;6.10;5.47;;;18.60;99.90;18.70;100996.00;;;;4890331;28;93200;-63
2022/08/25 00:34:15;;;;;;;7.38;5.28;;;18.60;99.90;18.70;101001.00;;;;4890752;28;123776;-63
2022/08/25 00:36:42;;;;;;;6.07;5.45;;;18.50;99.90;18.60;101007.00;;;;4887541;28;93595;-63
2022/08/25 00:39:10;;;;;;;8.15;5.50;;;18.50;99.90;18.60;100996.00;;;;4892316;28;92948;-62
2022/08/25 00:41:39;;;;;;;9.50;6.18;;;18.50;99.90;18.60;100994.00;;;;4895822;28;93074;-62
2022/08/25 00:44:08;;;;;;;6.28;4.75;;;18.50;99.90;18.50;100988.00;;;;4892174;28;92870;-62
2022/08/25 00:46:42;;;;;;;6.22;5.13;;;18.40;99.90;18.50;100988.00;;;;4892327;28;93267;-63
2022/08/25 00:49:15;;;;;;;8.60;4.30;;;18.40;99.90;18.50;100998.00;;;;4894978;28;93065;-62
2022/08/25 00:51:48;;;;;;;6.35;4.97;;;18.40;99.90;18.40;100992.00;;;;4876548;28;94043;-63
2022/08/25 00:54:21;;;;;;;6.53;4.53;;;18.30;99.90;18.40;100995.00;;;;4893508;28;107218;-62
2022/08/25 00:56:48;;;;;;;9.20;5.05;;;18.30;99.90;18.40;100988.00;;;;4894707;28;93562;-64
2022/08/25 00:59:16;;;;;;;5.35;4.85;;;18.30;99.90;18.30;100988.00;;;;4875925;28;95640;-63
2022/08/25 01:01:42;;;;;;;5.50;5.05;;;18.20;99.90;18.30;100992.00;;;;4876446;28;93220;-63
2022/08/25 01:04:07;;;;;;;5.68;4.15;;;18.20;99.90;18.30;100982.00;;;;4893871;28;121543;-63
2022/08/25 01:06:38;;;;;;;7.70;4.53;;;18.20;99.90;18.20;100981.00;;;;4892069;28;115580;-63
2022/08/25 01:09:06;;;;;;;6.45;5.30;;;18.20;99.90;18.20;100987.00;;;;4891316;28;96475;-63
2022/08/25 01:11:33;;;;;;;6.45;4.97;;;18.10;99.90;18.20;100987.00;;;;4895326;28;93236;-62
2022/08/25 01:14:05;;;;;;;5.20;3.85;;;18.10;99.90;18.20;100983.00;;;;4894799;28;101555;-62
2022/08/25 01:16:37;;;;;;;5.32;3.67;;;18.10;99.90;18.20;100978.00;;;;4893556;28;93730;-63
2022/08/25 01:19:05;;;;;;;6.97;4.00;;;18.00;99.90;18.10;100985.00;;;;4892574;28;92924;-63
2022/08/25 01:21:38;;;;;;;4.40;3.83;;;18.10;99.90;18.10;100973.00;;;;4893514;28;94195;-63
2022/08/25 01:24:04;;;;;;;5.72;4.32;;;18.00;99.90;18.10;100974.00;;;;4892044;28;92982;-62
2022/08/25 01:26:33;;;;;;;5.68;4.55;;;18.00;99.90;18.10;100975.00;;;;4875709;28;93833;-62
2022/08/25 01:29:24;;;;;;;7.07;4.20;;;18.00;99.90;18.00;100969.00;;;;4892429;28;102939;-62
2022/08/25 01:32:03;;;;;;;7.30;4.55;;;17.90;99.90;18.00;100965.00;;;;4893704;28;92970;-63
2022/08/25 01:34:33;;;;;;;8.70;4.93;;;17.90;99.90;18.00;100967.00;;;;4891330;28;92526;-63
2022/08/25 01:36:59;;;;;;;5.25;4.75;;;17.80;99.90;17.90;100975.00;;;;4894017;28;92830;-63
2022/08/25 01:39:27;;;;;;;6.43;4.13;;;17.80;99.90;17.90;100977.00;;;;4892262;28;112305;-63
2022/08/25 01:42:04;;;;;;;10.85;4.60;;;17.80;99.90;17.90;100969.00;;;;4891417;28;93819;-63
2022/08/25 01:44:33;;;;;;;5.18;4.25;;;17.80;99.90;17.90;100977.00;;;;4892381;28;94225;-63
2022/08/25 01:46:59;;;;;;;6.40;4.90;;;17.80;99.90;17.80;100978.00;;;;4893689;28;93041;-63
2022/08/25 01:49:25;;;;;;;7.13;4.93;;;17.70;99.90;17.80;100980.00;;;;4886525;28;101494;-62
2022/08/25 01:52:11;;;;;;;9.73;4.85;;;17.70;99.90;17.70;100983.00;;;;4893276;28;109382;-63
2022/08/25 01:54:36;;;;;;;8.98;5.07;;;17.70;99.90;17.70;100981.00;;;;4892581;28;93617;-63
2022/08/25 01:57:03;;;;;;;8.57;4.63;;;17.60;99.90;17.70;100979.00;;;;4892047;28;108076;-63
2022/08/25 01:59:28;;;;;;;9.45;6.65;;;17.60;99.90;17.70;100986.00;;;;4894998;28;92173;-63
2022/08/25 02:01:54;;;;;;;8.27;6.03;;;17.60;99.90;17.70;100983.00;;;;4894732;28;92994;-62
2022/08/25 02:04:20;;;;;;;4.53;4.13;;;17.60;99.90;17.60;100979.00;;;;4894105;28;123180;-63
2022/08/25 02:06:46;;;;;;;7.75;6.07;;;17.50;99.90;17.60;100980.00;;;;4893524;28;94041;-62
2022/08/25 02:09:15;;;;;;;8.63;5.30;;;17.50;99.90;17.60;100983.00;;;;4892899;28;110377;-62
2022/08/25 02:11:45;;;;;;;7.22;4.68;;;17.50;99.90;17.50;100975.00;;;;4895022;28;92881;-62
2022/08/25 02:14:13;;;;;;;14.45;5.20;;;17.50;99.90;17.50;100975.00;;;;4894553;28;93791;-62
2022/08/25 02:16:41;;;;;;;6.80;5.22;;;17.40;99.90;17.50;100972.00;;;;4894537;28;93154;-62
2022/08/25 02:19:10;;;;;;;9.82;5.22;;;17.40;99.90;17.50;100982.00;;;;4876821;28;93163;-63
2022/08/25 02:21:36;;;;;;;5.50;5.00;;;17.40;99.90;17.50;100980.00;;;;4894151;28;92768;-63
2022/08/25 02:24:04;;;;;;;8.00;5.50;;;17.40;99.90;17.50;100971.00;;;;4894010;28;92304;-62
2022/08/25 02:26:29;;;;;;;6.30;4.20;;;17.40;99.90;17.50;100962.00;;;;4892482;28;98597;-62
2022/08/25 02:28:55;;;;;;;7.68;4.88;;;17.40;99.90;17.50;100962.00;;;;4895300;28;92829;-62
2022/08/25 02:31:24;;;;;;;6.32;5.72;;;17.40;99.90;17.50;100964.00;;;;4892875;28;93772;-62
2022/08/25 02:33:51;;;;;;;5.30;4.75;;;17.40;99.90;17.40;100964.00;;;;4894082;28;94119;-62
2022/08/25 02:36:18;;;;;;;6.10;4.97;;;17.30;99.90;17.40;100960.00;;;;4892374;28;110527;-62
2022/08/25 02:38:45;;;;;;;6.70;5.30;;;17.30;99.90;17.40;100960.00;;;;4895851;28;92946;-62
2022/08/25 02:41:22;;;;;;;4.50;3.95;;;17.30;99.90;17.40;100956.00;;;;4893339;28;109164;-63
2022/08/25 02:43:49;;;;;;;6.95;4.55;;;17.30;99.90;17.40;100958.00;;;;4894003;28;93711;-63
2022/08/25 02:46:18;;;;;;;6.50;3.88;;;17.30;99.90;17.40;100950.00;;;;4893452;28;92764;-62
2022/08/25 02:48:45;;;;;;;9.93;4.70;;;17.30;99.90;17.30;100947.00;;;;4894993;28;92523;-64
2022/08/25 02:51:11;;;;;;;6.57;4.53;;;17.20;99.90;17.30;100949.00;;;;4894249;28;92952;-63
2022/08/25 02:53:39;;;;;;;6.88;3.97;;;17.20;99.90;17.30;100957.00;;;;4892727;28;93311;-63
2022/08/25 02:56:08;;;;;;;4.80;4.40;;;17.20;99.90;17.30;100952.00;;;;4892394;28;94077;-63
2022/08/25 02:58:34;;;;;;;15.13;4.78;;;17.20;99.90;17.30;100943.00;;;;4891584;28;93367;-63
2022/08/25 03:01:00;;;;;;;5.05;4.50;;;17.20;99.90;17.20;100946.00;;;;4893580;28;92779;-62
2022/08/25 03:03:26;;;;;;;5.93;4.50;;;17.20;99.90;17.20;100944.00;;;;4893803;28;93226;-62
2022/08/25 03:05:52;;;;;;;4.30;3.50;;;17.10;99.90;17.20;100947.00;;;;4891058;28;122140;-62
2022/08/25 03:08:18;;;;;;;6.88;4.40;;;17.10;99.90;17.20;100940.00;;;;4893658;28;93149;-62
2022/08/25 03:10:44;;;;;;;8.48;4.78;;;17.10;99.90;17.20;100941.00;;;;4889958;28;92746;-62
2022/08/25 03:13:09;;;;;;;6.78;4.22;;;17.10;99.90;17.20;100944.00;;;;4892871;28;117018;-62
2022/08/25 03:15:40;;;;;;;6.63;4.72;;;17.10;99.90;17.20;100937.00;;;;4893259;28;121752;-62
2022/08/25 03:18:06;;;;;;;4.30;3.75;;;17.10;99.90;17.10;100942.00;;;;4893095;28;93004;-63
2022/08/25 03:20:34;;;;;;;5.00;3.80;;;17.10;99.90;17.10;100939.00;;;;4891465;28;94217;-62
2022/08/25 03:23:01;;;;;;;7.32;3.67;;;17.00;99.90;17.10;100935.00;;;;4893292;28;94238;-62
2022/08/25 03:28:13;;;;;;;5.82;4.70;;;17.00;99.90;17.10;100934.00;;;;4887982;28;93160;-63
2022/08/25 03:30:40;;;;;;;6.32;4.55;;;17.00;99.90;17.00;100921.00;;;;4892245;28;94265;-62
2022/08/25 03:33:06;;;;;;;5.88;4.60;;;17.00;99.90;17.00;100931.00;;;;4891999;28;93563;-63
2022/08/25 03:35:32;;;;;;;4.57;4.10;;;16.90;99.90;17.00;100936.00;;;;4892306;28;115599;-62
2022/08/25 03:37:59;;;;;;;7.93;5.88;;;16.90;99.90;17.00;100939.00;;;;4892667;28;94475;-63
2022/08/25 03:40:25;;;;;;;6.30;4.25;;;16.90;99.90;17.00;100936.00;;;;4892519;28;92808;-63
2022/08/25 03:42:51;;;;;;;5.22;4.25;;;16.90;99.90;17.00;100938.00;;;;4892163;28;102293;-63
2022/08/25 03:45:18;;;;;;;5.57;4.47;;;16.90;99.90;16.90;100937.00;;;;4890588;28;97939;-62
2022/08/25 03:47:47;;;;;;;7.05;4.15;;;16.80;99.90;16.90;100944.00;;;;4894996;28;92755;-63
2022/08/25 03:50:15;;;;;;;8.05;5.75;;;16.80;99.90;16.90;100938.00;;;;4893358;28;93155;-63
2022/08/25 03:52:41;;;;;;;6.28;4.47;;;16.80;99.90;16.90;100941.00;;;;4894564;28;103464;-63
2022/08/25 03:55:12;;;;;;;6.28;5.15;;;16.80;99.90;16.90;100942.00;;;;4893552;28;123036;-62
2022/08/25 03:57:38;;;;;;;5.55;4.95;;;16.60;99.90;16.80;100938.00;;;;4894472;28;92955;-62
2022/08/25 04:00:09;;;;;;;7.78;4.43;;;16.70;99.90;16.80;100939.00;;;;4895171;28;99018;-63
2022/08/25 04:02:35;;;;;;;7.45;5.85;;;16.70;99.90;16.80;100936.00;;;;4892014;28;93294;-63
2022/08/25 04:05:00;;;;;;;8.80;5.15;;;16.70;99.90;16.80;100942.00;;;;4893759;28;104043;-63
2022/08/25 04:07:26;;;;;;;5.55;4.43;;;16.70;99.90;16.80;100939.00;;;;4896358;28;110342;-64
2022/08/25 04:09:55;;;;;;;6.43;5.00;;;16.70;99.90;16.80;100935.00;;;;4894990;28;108804;-62
2022/08/25 04:12:21;;;;;;;9.98;4.38;;;16.70;99.90;16.80;100939.00;;;;4894303;28;114750;-63
2022/08/25 04:14:47;;;;;;;13.05;4.70;;;16.70;99.90;16.80;100932.00;;;;4898825;28;115299;-62
2022/08/25 04:17:13;;;;;;;8.02;5.80;;;16.70;99.90;16.80;100929.00;;;;4899747;28;105137;-63
2022/08/25 04:19:39;;;;;;;8.02;5.88;;;16.70;99.90;16.80;100936.00;;;;4900297;28;108850;-63
2022/08/25 04:22:05;;;;;;;6.00;4.20;;;16.70;99.90;16.80;100936.00;;;;4898764;28;122069;-63
2022/08/25 04:24:30;;;;;;;7.97;5.07;;;16.70;99.90;16.80;100927.00;;;;4903182;28;93261;-63
2022/08/25 04:26:57;;;;;;;9.88;4.85;;;16.70;99.90;16.80;100925.00;;;;4899557;28;109155;-62
2022/08/25 04:29:24;;;;;;;5.90;5.35;;;16.70;99.90;16.80;100921.00;;;;4897877;28;93266;-62
2022/08/25 04:31:52;;;;;;;6.75;4.88;;;16.70;99.90;16.80;100926.00;;;;4898868;28;93094;-62
2022/08/25 04:34:21;;;;;;;5.30;4.65;;;16.70;99.90;16.80;100921.00;;;;4899905;28;93815;-63
2022/08/25 04:36:49;;;;;;;6.90;4.78;;;16.70;99.90;16.80;100930.00;;;;4897807;28;92875;-63
2022/08/25 04:39:19;;;;;;;7.43;4.88;;;16.70;99.90;16.80;100931.00;;;;4894620;28;92713;-61
2022/08/25 04:41:45;;;;;;;6.30;4.43;;;16.70;99.90;16.90;100938.00;;;;4897329;28;93619;-62
2022/08/25 04:44:11;;;;;;;8.35;4.43;;;16.80;99.90;16.90;100928.00;;;;4892710;28;93335;-62
2022/08/25 04:46:37;;;;;;;6.30;5.68;;;16.80;99.90;17.00;100936.00;;;;4890458;28;110858;-61
2022/08/25 04:49:03;;;;;;;5.88;4.88;;;17.00;99.90;17.00;100931.00;;;;4876062;28;109326;-61
2022/08/25 04:51:35;;;;;;;9.45;5.07;;;16.90;99.90;17.00;100943.00;;;;4891968;28;93301;-62
2022/08/25 04:54:04;;;;;;;6.93;5.15;;;16.90;99.90;17.10;100936.00;;;;4889078;28;93260;-63
2022/08/25 04:56:34;;;;;;;6.22;4.93;;;17.00;99.90;17.10;100933.00;;;;4889874;28;93002;-64
2022/08/25 04:59:07;;;;;;;7.63;4.70;;;17.20;99.90;17.20;100938.00;;;;4890992;28;94000;-63
2022/08/25 05:01:33;;;;;;;8.15;5.50;;;17.10;99.90;17.30;100948.00;;;;4889635;28;105406;-64
2022/08/25 05:04:03;;;;;;;6.00;5.25;;;17.10;99.90;17.30;100945.00;;;;4891760;28;102514;-63
2022/08/25 05:06:29;;;;;;;12.13;5.95;;;17.20;99.90;17.40;100940.00;;;;4890876;28;92982;-63
2022/08/25 05:08:56;;;;;;;7.72;5.53;;;17.30;99.90;17.50;100947.00;;;;4889346;28;93245;-63
2022/08/25 05:11:23;;;;;;;6.80;6.03;;;17.30;99.90;17.50;100944.00;;;;4891978;28;94310;-63
2022/08/25 05:13:51;;;;;;;7.90;5.35;;;17.30;99.90;17.60;100952.00;;;;4892814;28;113865;-63
2022/08/25 05:16:19;;;;;;;8.27;5.82;;;17.40;99.90;17.80;100959.00;;;;4893784;28;92160;-64
2022/08/25 05:18:45;;;;;;;10.95;6.68;;;17.50;99.90;17.90;100961.00;;;;4893903;28;102466;-63
2022/08/25 05:21:17;;;;;;;8.73;7.43;;;17.70;99.90;18.00;100952.00;;;;4893209;28;122787;-63
2022/08/25 05:23:43;;;;;;;7.68;6.70;;;17.80;99.90;18.10;100953.00;;;;4893869;28;96473;-63
2022/08/25 05:26:12;;;;;;;7.93;6.40;;;18.00;99.90;18.30;100958.00;;;;4893282;28;92936;-63
2022/08/25 05:28:40;;;;;;;10.85;7.20;;;18.10;99.90;18.50;100958.00;;;;4896605;28;92758;-63
2022/08/25 05:31:08;;;;;;;8.30;6.53;;;18.20;99.90;18.60;100961.00;;;;4892716;28;93829;-63
2022/08/25 05:33:36;;;;;;;12.15;7.10;;;18.40;99.90;18.70;100961.00;;;;4893733;28;93850;-63
2022/08/25 05:36:03;;;;;;;9.02;6.55;;;18.50;99.90;18.80;100959.00;;;;4891071;28;102353;-63
2022/08/25 05:38:29;;;;;;;6.75;5.47;;;18.60;99.90;18.90;100949.00;;;;4892713;28;93032;-63
2022/08/25 05:41:02;;;;;;;8.55;6.38;;;18.70;99.90;19.00;100958.00;;;;4893031;28;112665;-63
2022/08/25 05:43:28;;;;;;;8.88;6.55;;;18.80;99.90;19.10;100958.00;;;;4892799;28;92908;-63
2022/08/25 05:45:55;;;;;;;7.63;5.68;;;18.90;99.90;19.20;100954.00;;;;4893948;28;93331;-63
2022/08/25 05:48:22;;;;;;;9.07;6.32;;;19.00;99.90;19.30;100960.00;;;;4893841;28;94155;-63
2022/08/25 05:50:58;;;;;;;9.57;6.70;;;19.10;99.90;19.50;100958.00;;;;4893179;28;93259;-64
2022/08/25 05:53:26;;;;;;;7.40;5.85;;;19.20;99.90;19.60;100950.00;;;;4893635;28;93661;-64
2022/08/25 05:55:53;;;;;;;9.00;6.97;;;19.40;99.90;19.80;100957.00;;;;4893047;28;92954;-63
2022/08/25 05:58:20;;;;;;;9.30;5.88;;;19.50;99.90;20.00;100950.00;;;;4892715;28;92923;-64
2022/08/25 06:00:46;;;;;;;8.45;6.13;;;19.70;99.90;20.20;100949.00;;;;4893001;28;93547;-63
2022/08/25 06:03:12;;;;;;;7.18;4.88;;;19.90;99.90;20.40;100952.00;;;;4893585;28;92872;-62
2022/08/25 06:05:39;;;;;;;8.30;5.88;;;20.10;99.90;20.60;100945.00;;;;4892888;28;92438;-62
2022/08/25 06:08:06;;;;;;;8.85;7.10;;;20.30;99.90;20.80;100943.00;;;;4873541;28;92856;-62
2022/08/25 06:10:32;;;;;;;11.45;5.93;;;20.50;99.90;20.90;100948.00;;;;4893350;28;95302;-62
2022/08/25 06:12:58;;;;;;;8.25;5.70;;;20.60;99.90;21.00;100950.00;;;;4891874;28;116128;-62
2022/08/25 06:15:24;;;;;;;6.60;4.85;;;20.80;99.90;21.20;100950.00;;;;4892269;28;110697;-62
2022/08/25 06:17:51;;;;;;;8.90;6.93;;;20.90;99.90;21.30;100948.00;;;;4892669;28;108620;-62
2022/08/25 06:20:21;;;;;;;10.00;5.88;;;21.00;99.90;21.30;100951.00;;;;4892103;28;114440;-62
2022/08/25 06:22:47;;;;;;;7.25;5.85;;;21.10;99.90;21.30;100950.00;;;;4892645;28;93454;-62
2022/08/25 06:25:17;;;;;;;7.22;5.85;;;21.10;99.90;21.40;100951.00;;;;4892651;28;93058;-63
2022/08/25 06:27:44;;;;;;;8.07;5.68;;;21.20;99.90;21.40;100953.00;;;;4892727;28;100931;-62
2022/08/25 06:30:13;;;;;;;13.93;5.47;;;21.20;99.90;21.50;100949.00;;;;4891074;28;92695;-62
2022/08/25 06:32:41;;;;;;;11.38;6.28;;;21.20;99.90;21.60;100953.00;;;;4892636;28;93827;-62
2022/08/25 06:35:11;;;;;;;12.30;6.65;;;21.30;99.90;21.80;100957.00;;;;4892853;28;92943;-63
2022/08/25 06:37:37;;;;;;;8.60;5.68;;;21.50;99.90;22.00;100957.00;;;;4887294;28;102750;-62
2022/08/25 06:40:06;;;;;;;7.07;5.63;;;21.70;99.90;22.30;100950.00;;;;4893571;28;93162;-62
2022/08/25 06:42:32;;;;;;;6.47;4.72;;;22.00;99.90;22.60;100952.00;;;;4892470;28;93651;-63
2022/08/25 06:44:58;;;;;;;9.82;5.57;;;22.20;99.90;22.80;100951.00;;;;4887973;28;101485;-62
2022/08/25 06:47:23;;;;;;;6.72;5.35;;;22.50;99.90;23.10;100950.00;;;;4892345;28;108242;-62
2022/08/25 06:49:49;;;;;;;10.77;5.53;;;22.80;99.90;23.40;100950.00;;;;4891164;28;122670;-62
2022/08/25 06:52:15;;;;;;;7.45;5.93;;;23.10;99.90;23.70;100954.00;;;;4889440;28;122366;-62
2022/08/25 06:54:41;;;;;;;6.47;4.97;;;23.30;99.90;23.90;100947.00;;;;4888406;28;112058;-62
2022/08/25 06:57:08;;;;;;;10.32;6.47;;;23.60;99.90;24.20;100952.00;;;;4893166;28;92750;-62
2022/08/25 06:59:35;;;;;;;8.93;5.88;;;23.90;99.90;24.40;100954.00;;;;4892339;28;100993;-62
2022/08/25 07:02:03;;;;;;;8.30;6.05;;;24.10;99.90;24.70;100955.00;;;;4889089;28;96655;-63
2022/08/25 07:04:29;;;;;;;9.07;6.50;;;24.30;99.90;24.90;100954.00;;;;4892332;28;99725;-62
2022/08/25 07:06:54;;;;;;;6.45;4.80;;;24.50;99.90;25.00;100951.00;;;;4891230;28;102860;-62
2022/08/25 07:09:20;;;;;;;6.75;5.47;;;24.70;99.90;25.20;100947.00;;;;4892932;28;93510;-62
2022/08/25 07:11:46;;;;;;;10.43;5.97;;;24.90;99.90;25.40;100956.00;;;;4890639;28;100853;-63
2022/08/25 07:14:15;;;;;;;10.07;5.65;;;25.10;99.90;25.70;100949.00;;;;4892646;28;93147;-63
2022/08/25 07:16:42;;;;;;;8.95;5.78;;;25.30;99.90;25.90;100956.00;;;;4889856;28;102237;-62
2022/08/25 07:19:10;;;;;;;8.15;5.53;;;25.60;99.90;26.10;100953.00;;;;4892622;28;92363;-62
2022/08/25 07:21:40;;;;;;;6.93;4.93;;;25.70;99.90;26.20;100951.00;;;;4891898;28;93561;-63
2022/08/25 07:24:09;;;;;;;8.73;6.13;;;25.90;99.90;26.40;100954.00;;;;4890902;28;94322;-63
2022/08/25 07:26:36;;;;;;;7.15;6.18;;;26.00;99.90;26.60;100943.00;;;;4889802;28;93886;-62
2022/08/25 07:29:11;;;;;;;8.15;5.40;;;26.30;99.90;26.90;100951.00;;;;4891811;28;111692;-62
2022/08/25 07:31:37;;;;;;;8.18;5.80;;;26.50;99.90;27.00;100943.00;;;;4889784;28;92801;-63
2022/08/25 07:36:47;;;;;;;8.00;5.50;;;26.90;99.90;27.40;100942.00;;;;4891249;28;93059;-62
2022/08/25 07:39:12;;;;;;;7.78;5.35;;;27.10;99.90;27.60;100948.00;;;;4878915;28;107875;-62
2022/08/25 07:41:40;;;;;;;6.45;4.60;;;27.20;99.90;27.80;100946.00;;;;4889704;28;122314;-63
2022/08/25 07:44:08;;;;;;;8.18;5.40;;;27.50;99.90;28.00;100940.00;;;;4892334;28;92116;-63
2022/08/25 07:46:35;;;;;;;14.93;5.10;;;27.70;99.90;28.20;100945.00;;;;4891126;28;92926;-63
2022/08/25 07:49:00;;;;;;;7.75;5.30;;;27.80;99.90;28.40;100943.00;;;;4893607;28;93102;-63
2022/08/25 07:51:26;;;;;;;6.88;4.78;;;28.00;99.90;28.60;100947.00;;;;4891995;28;93799;-63
2022/08/25 07:53:52;;;;;;;11.27;5.03;;;28.20;99.90;28.70;100943.00;;;;4894916;28;101528;-62
2022/08/25 07:56:18;;;;;;;7.38;5.15;;;28.30;99.80;28.70;100951.00;;;;4894775;28;92916;-62
2022/08/25 07:58:45;;;;;;;8.27;5.00;;;28.40;99.10;28.80;100946.00;;;;4894410;28;93620;-63
2022/08/25 08:01:21;;;;;;;7.00;4.28;;;28.50;99.10;29.10;100953.00;;;;4895616;28;93302;-63
2022/08/25 08:03:47;;;;;;;9.43;4.63;;;28.70;98.90;29.30;100949.00;;;;4894293;28;92994;-62
2022/08/25 08:06:22;;;;;;;4.30;3.67;;;28.90;98.50;29.50;100944.00;;;;4891262;28;108941;-63
2022/08/25 08:08:50;;;;;;;3.90;3.55;;;29.10;98.10;29.70;100949.00;;;;4895686;28;93138;-64
2022/08/25 08:11:21;;;;;;;10.40;4.82;;;29.30;96.70;29.80;100955.00;;;;4895057;28;92959;-64
2022/08/25 08:13:48;;;;;;;5.22;4.25;;;29.40;94.30;29.80;100947.00;;;;4894152;28;93145;-64
2022/08/25 08:16:16;;;;;;;7.93;4.10;;;29.40;94.40;29.80;100945.00;;;;4892660;28;100611;-64
2022/08/25 08:18:43;;;;;;;4.95;3.88;;;29.50;94.40;29.90;100946.00;;;;4893844;28;93943;-64
2022/08/25 08:21:31;;;;;;;6.18;4.38;;;29.60;94.20;30.20;100939.00;;;;4894566;28;93613;-65
2022/08/25 08:23:58;;;;;;;5.00;3.53;;;29.80;93.90;30.30;100942.00;;;;4894760;28;93038;-65
2022/08/25 08:26:25;;;;;;;5.10;3.50;;;29.90;93.10;30.50;100945.00;;;;4893427;28;92884;-66
2022/08/25 08:28:51;;;;;;;6.60;3.58;;;30.10;92.40;30.70;100951.00;;;;4894818;28;93222;-65
2022/08/25 08:31:19;;;;;;;13.18;5.22;;;30.30;91.30;30.80;100943.00;;;;4894025;28;93620;-65
2022/08/25 08:33:47;;;;;;;7.95;4.63;;;30.40;91.30;30.90;100943.00;;;;4894614;28;92116;-65
2022/08/25 08:36:13;;;;;;;7.45;3.38;;;30.50;87.90;30.90;100936.00;;;;4894636;28;92948;-65
2022/08/25 08:38:41;;;;;;;3.95;3.55;;;30.60;85.50;30.80;100926.00;;;;4894064;28;93977;-65
2022/08/25 08:44:30;;;;;;;4.82;3.10;;;30.40;84.50;30.90;100930.00;;;;4892445;28;92799;-65
2022/08/25 08:47:33;;;;;;;5.35;3.80;;;30.50;85.20;31.10;100927.00;;;;4875863;28;92943;-65
2022/08/25 08:50:32;;;;;;;5.13;3.40;;;30.60;82.40;31.10;100932.00;;;;4874922;28;93240;-65
2022/08/25 08:53:24;;;;;;;5.10;3.40;;;30.70;81.50;31.20;100930.00;;;;4892529;28;92817;-67
2022/08/25 08:55:58;;;;;;;3.88;3.33;;;30.70;81.80;31.40;100923.00;;;;4892449;28;93142;-65
2022/08/25 08:58:42;;;;;;;10.80;3.42;;;30.90;82.60;31.70;100924.00;;;;4884986;28;93078;-67
2022/08/25 09:01:16;;;;;;;5.50;3.63;;;31.20;81.40;32.00;100928.00;;;;4888974;28;94126;-66
2022/08/25 09:04:05;;;;;;;5.05;3.33;;;31.40;79.80;32.20;100926.00;;;;4877125;28;93002;-67
2022/08/25 09:06:46;;;;;;;4.65;3.22;;;31.60;79.00;32.30;100929.00;;;;4894064;28;93096;-66
2022/08/25 09:09:27;;;;;;;6.93;3.72;;;31.80;76.90;32.50;100921.00;;;;4876706;28;93666;-66
2022/08/25 09:12:30;;;;;;;6.47;3.15;;;32.00;73.40;32.50;100921.00;;;;4891020;28;95488;-66
2022/08/25 09:15:12;;;;;;;6.15;2.85;;;32.10;71.50;32.60;100924.00;;;;4850768;28;92899;-66
2022/08/25 09:18:07;;;;;;;4.72;2.92;;;32.10;70.10;32.50;100910.00;;;;4910351;28;92969;-67
2022/08/25 09:20:47;;;;;;;10.82;2.95;;;32.10;67.50;32.50;100911.00;;;;4872864;28;93056;-66
2022/08/25 09:23:43;;;;;;;5.22;2.55;;;32.00;68.10;32.60;100909.00;;;;4895672;28;93263;-66
2022/08/25 09:26:37;;;;;;;3.15;2.25;;;32.10;67.50;32.80;100917.00;;;;4892544;28;92879;-67
2022/08/25 09:29:13;;;;;;;4.97;2.70;;;32.20;67.40;32.90;100915.00;;;;4875909;28;92168;-66
2022/08/25 09:31:41;;;;;;;10.25;3.88;;;32.30;65.60;32.70;100903.00;;;;4891390;28;102181;-67
2022/08/25 09:34:17;;;;;;;4.22;2.42;;;32.30;63.80;32.20;100913.00;;;;4892873;28;96611;-67
2022/08/25 09:36:44;;;;;;;7.45;2.67;;;32.00;63.10;31.90;100900.00;;;;4889441;28;93933;-67
2022/08/25 09:39:11;;;;;;;6.32;2.95;;;31.60;64.90;31.90;100911.00;;;;4895105;28;92812;-67
2022/08/25 09:41:50;;;;;;;4.90;2.58;;;31.50;65.90;32.00;100897.00;;;;4893875;28;92785;-67
2022/08/25 09:44:32;;;;;;;6.65;2.55;;;31.50;65.60;32.00;100904.00;;;;4908927;28;93821;-67
2022/08/25 09:47:26;;;;;;;3.53;2.38;;;31.50;65.10;32.20;100900.00;;;;4890831;28;93092;-67
2022/08/25 09:50:00;;;;;;;3.35;2.50;;;31.60;66.00;32.40;100895.00;;;;4875857;28;92887;-67
2022/08/25 09:52:37;;;;;;;8.57;3.55;;;31.70;65.50;32.60;100896.00;;;;4890605;28;103536;-66
2022/08/25 09:55:14;;;;;;;8.43;2.85;;;32.00;65.80;32.80;100894.00;;;;4894107;28;92046;-66
2022/08/25 09:57:43;;;;;;;5.85;2.85;;;32.20;64.10;32.90;100889.00;;;;4893666;28;92823;-68
2022/08/25 10:00:26;;;;;;;3.03;2.45;;;32.40;64.70;32.90;100890.00;;;;4894189;28;92827;-67
2022/08/25 10:03:20;;;;;;;3.60;2.85;;;32.40;62.50;33.10;100899.00;;;;4874148;28;93898;-67
2022/08/25 10:06:12;;;;;;;8.68;2.92;;;32.50;63.90;33.00;100879.00;;;;4889737;28;100768;-67
2022/08/25 10:08:40;;;;;;;4.72;3.05;;;32.60;61.00;32.90;100880.00;;;;4892976;28;93742;-67
2022/08/25 10:11:28;;;;;;;7.05;3.30;;;32.40;62.10;33.10;100885.00;;;;4875120;28;92866;-67
2022/08/25 10:14:24;;;;;;;7.80;3.58;;;32.50;62.30;33.10;100881.00;;;;4875402;28;102527;-68
2022/08/25 10:16:50;;;;;;;6.90;3.40;;;32.60;61.80;33.20;100875.00;;;;4893209;28;93150;-67
2022/08/25 10:19:28;;;;;;;5.30;2.83;;;32.60;61.20;33.20;100873.00;;;;4907353;28;93028;-67
2022/08/25 10:22:05;;;;;;;7.15;2.72;;;32.60;61.00;33.00;100870.00;;;;4891908;28;100528;-67
2022/08/25 10:24:31;;;;;;;3.50;2.85;;;32.50;61.40;32.90;100866.00;;;;4889690;28;93110;-68
2022/08/25 10:27:02;;;;;;;4.35;2.53;;;32.40;61.60;32.80;100875.00;;;;4874729;28;112211;-67
2022/08/25 10:29:50;;;;;;;7.45;3.35;;;32.30;61.80;32.60;100862.00;;;;4889401;28;113903;-65
2022/08/25 10:32:49;;;;;;;3.50;2.80;;;32.20;61.80;32.40;100854.00;;;;4891478;28;92978;-67
2022/08/25 10:35:27;;;;;;;5.07;2.92;;;32.00;63.40;32.40;100856.00;;;;4892985;28;92723;-67
2022/08/25 10:38:19;;;;;;;2.70;2.45;;;31.90;62.90;32.40;100852.00;;;;4872384;28;114471;-67
2022/08/25 10:40:56;;;;;;;2.88;2.10;;;31.90;62.50;32.40;100847.00;;;;4891153;28;92993;-67
2022/08/25 10:43:42;;;;;;;3.85;2.88;;;31.90;63.30;32.50;100847.00;;;;4890751;28;93124;-67
2022/08/25 10:46:43;;;;;;;6.15;3.22;;;31.90;63.00;32.30;100835.00;;;;4890423;28;96551;-68
2022/08/25 10:49:24;;;;;;;7.45;3.30;;;31.90;61.60;32.20;100835.00;;;;4872103;28;92215;-65
2022/08/25 10:52:04;;;;;;;5.32;3.38;;;31.70;62.50;32.10;100828.00;;;;4890296;28;92783;-67
2022/08/25 10:54:47;;;;;;;4.50;3.25;;;31.60;62.50;32.40;100818.00;;;;4888710;28;101847;-67
2022/08/25 10:57:40;;;;;;;4.95;2.65;;;31.80;62.80;32.80;100822.00;;;;4872330;28;93667;-68
2022/08/25 11:00:12;;;;;;;3.97;2.58;;;32.10;62.30;33.20;100823.00;;;;4887773;28;105353;-67
2022/08/25 11:03:21;;;;;;;3.67;2.63;;;32.40;62.20;33.70;100810.00;;;;4874522;28;93671;-65
2022/08/25 11:05:56;;;;;;;4.43;3.25;;;32.90;61.20;33.90;100814.00;;;;4872017;28;101828;-68
2022/08/25 11:08:35;;;;;;;7.57;3.10;;;33.20;60.30;34.10;100817.00;;;;4890819;28;93164;-67
2022/08/25 11:11:23;;;;;;;5.35;3.40;;;33.40;59.90;34.30;100808.00;;;;4903478;28;93164;-68